Time;durP1;ratioP1;P1;durP2;ratioP2;P2;SDS_P1;SDS_P2;PMS_P1;PMS_P2;Temp;Humidity;BMP_temperature;BMP_pressure;BME280_temperature;BME280_humidity;BME280_pressure;Samples;Min_cycle;Max_cycle;Signal;HPM_P1;HPM_P2
2022/08/29 00:01:46;;;;;;;;;;;16.40;99.90;;;;;;6194979;23;19965;-77
2022/08/29 00:04:13;;;;;;;;;;;16.40;99.90;;;;;;6194840;23;19915;-77
2022/08/29 00:06:39;;;;;;;;;;;16.30;99.90;;;;;;6219918;23;19951;-78
2022/08/29 00:09:05;;;;;;;;;;;16.30;99.90;;;;;;6194933;23;20310;-78
2022/08/29 00:11:31;;;;;;;;;;;16.30;99.90;;;;;;6194898;23;19916;-76
2022/08/29 00:13:56;;;;;;;;;;;16.30;99.90;;;;;;6221057;23;20192;-76
2022/08/29 00:16:22;;;;;;;;;;;16.40;99.90;;;;;;6197099;23;19926;-76
2022/08/29 00:18:48;;;;;;;;;;;16.40;99.90;;;;;;6222176;23;19923;-78
2022/08/29 00:21:13;;;;;;;;;;;16.30;99.90;;;;;;6196405;23;19927;-76
2022/08/29 00:23:39;;;;;;;;;;;16.30;99.90;;;;;;6196385;23;19959;-78
2022/08/29 00:26:05;;;;;;;;;;;16.30;99.90;;;;;;6195110;23;20347;-77
2022/08/29 00:28:30;;;;;;;;;;;16.30;99.90;;;;;;6220429;23;19916;-78
2022/08/29 00:30:56;;;;;;;;;;;16.30;99.90;;;;;;6220408;23;19915;-76
2022/08/29 00:33:21;;;;;;;;;;;16.30;99.90;;;;;;6221804;23;20336;-77
2022/08/29 00:35:47;;;;;;;;;;;16.30;99.90;;;;;;6221507;23;19951;-75
2022/08/29 00:38:14;;;;;;;;;;;16.30;99.90;;;;;;6248484;23;19942;-78
2022/08/29 00:40:41;;;;;;;;;;;16.30;99.90;;;;;;6195553;23;19916;-78
2022/08/29 00:43:07;;;;;;;;;;;16.30;99.90;;;;;;6195402;23;19912;-77
2022/08/29 00:45:34;;;;;;;;;;;16.30;99.90;;;;;;6194250;23;19915;-75
2022/08/29 00:48:03;;;;;;;;;;;16.30;99.90;;;;;;6220957;23;19965;-77
2022/08/29 00:50:39;;;;;;;;;;;16.30;99.90;;;;;;6221008;23;19916;-75
2022/08/29 00:53:07;;;;;;;;;;;16.30;99.90;;;;;;6220599;23;20318;-75
2022/08/29 00:55:33;;;;;;;;;;;16.30;99.90;;;;;;6219999;23;19923;-76
2022/08/29 00:58:02;;;;;;;;;;;16.30;99.90;;;;;;6221010;23;19951;-76
2022/08/29 01:00:29;;;;;;;;;;;16.30;99.90;;;;;;6221320;23;19919;-75
2022/08/29 01:02:54;;;;;;;;;;;16.30;99.90;;;;;;6221450;23;19915;-76
2022/08/29 01:05:21;;;;;;;;;;;16.30;99.90;;;;;;6248002;23;19916;-77
2022/08/29 01:07:48;;;;;;;;;;;16.30;99.90;;;;;;6196432;23;19994;-76
2022/08/29 01:12:14;;;;;;;;;;;16.30;99.90;;;;;;6221533;23;20366;-75
2022/08/29 01:13:00;;;;;;;;;;;16.30;99.90;;;;;;6220621;23;20234;-75
2022/08/29 01:15:26;;;;;;;;;;;16.30;99.90;;;;;;6195989;23;19916;-77
2022/08/29 01:17:53;;;;;;;;;;;16.30;99.90;;;;;;6221256;23;19922;-76
2022/08/29 01:20:24;;;;;;;;;;;16.30;99.90;;;;;;6221163;23;19916;-76
2022/08/29 01:22:49;;;;;;;;;;;16.30;99.90;;;;;;6196006;23;19915;-77
2022/08/29 01:25:18;;;;;;;;;;;16.30;99.90;;;;;;6195458;23;20003;-76
2022/08/29 01:27:46;;;;;;;;;;;16.40;99.90;;;;;;6219563;23;19922;-76
2022/08/29 01:30:13;;;;;;;;;;;16.30;99.90;;;;;;6219401;23;20315;-77
2022/08/29 01:32:40;;;;;;;;;;;16.40;99.90;;;;;;6219698;23;19941;-77
2022/08/29 01:35:07;;;;;;;;;;;16.40;99.90;;;;;;6195440;23;19922;-76
2022/08/29 01:37:35;;;;;;;;;;;16.30;99.90;;;;;;6195080;23;19927;-77
2022/08/29 01:40:01;;;;;;;;;;;16.30;99.90;;;;;;6195997;23;19916;-77
2022/08/29 01:42:27;;;;;;;;;;;16.30;99.90;;;;;;6220420;23;20380;-75
2022/08/29 01:44:55;;;;;;;;;;;16.30;99.90;;;;;;6220713;23;19969;-76
2022/08/29 01:47:21;;;;;;;;;;;16.40;99.90;;;;;;6221172;23;19954;-75
2022/08/29 01:49:47;;;;;;;;;;;16.30;99.90;;;;;;6220468;23;19922;-76
2022/08/29 01:52:13;;;;;;;;;;;16.30;99.90;;;;;;6195414;23;19923;-75
2022/08/29 01:54:40;;;;;;;;;;;16.30;99.90;;;;;;6220268;23;19919;-74
2022/08/29 01:57:06;;;;;;;;;;;16.30;99.90;;;;;;6195600;23;19965;-73
2022/08/29 01:59:32;;;;;;;;;;;16.30;99.90;;;;;;6220484;23;20340;-76
2022/08/29 02:01:57;;;;;;;;;;;16.30;99.90;;;;;;6195636;23;19998;-75
2022/08/29 02:04:23;;;;;;;;;;;16.30;99.90;;;;;;6220728;23;20242;-73
2022/08/29 02:06:49;;;;;;;;;;;16.30;99.90;;;;;;6195972;23;19922;-75
2022/08/29 02:09:14;;;;;;;;;;;16.30;99.90;;;;;;6220681;23;19922;-74
2022/08/29 02:11:40;;;;;;;;;;;16.30;99.90;;;;;;6194507;23;19938;-73
2022/08/29 02:14:06;;;;;;;;;;;16.30;99.90;;;;;;6192620;23;19915;-75
2022/08/29 02:16:32;;;;;;;;;;;16.30;99.90;;;;;;6194810;23;19916;-75
2022/08/29 02:18:58;;;;;;;;;;;16.30;99.90;;;;;;6195716;23;19915;-75
2022/08/29 02:21:25;;;;;;;;;;;16.30;99.90;;;;;;6195074;23;20340;-73
2022/08/29 02:23:53;;;;;;;;;;;16.30;99.90;;;;;;6195610;23;19984;-74
2022/08/29 02:26:19;;;;;;;;;;;16.30;99.90;;;;;;6194798;23;19947;-75
2022/08/29 02:28:45;;;;;;;;;;;16.30;99.90;;;;;;6219929;23;19915;-76
2022/08/29 02:31:11;;;;;;;;;;;16.30;99.90;;;;;;6220498;23;20269;-76
2022/08/29 02:33:37;;;;;;;;;;;16.30;99.90;;;;;;6220445;23;19915;-73
2022/08/29 02:36:04;;;;;;;;;;;16.30;99.90;;;;;;6219958;23;19919;-74
2022/08/29 02:38:29;;;;;;;;;;;16.30;99.90;;;;;;6194390;23;19951;-74
2022/08/29 02:40:55;;;;;;;;;;;16.30;99.90;;;;;;6194153;23;19935;-75
2022/08/29 02:43:20;;;;;;;;;;;16.30;99.90;;;;;;6246997;23;19916;-74
2022/08/29 02:45:46;;;;;;;;;;;16.30;99.90;;;;;;6220376;23;19916;-73
2022/08/29 02:48:16;;;;;;;;;;;16.30;99.90;;;;;;6195439;23;19942;-75
2022/08/29 02:50:44;;;;;;;;;;;16.30;99.90;;;;;;6195258;23;19923;-76
2022/08/29 02:53:10;;;;;;;;;;;16.30;99.90;;;;;;6220141;23;20349;-75
2022/08/29 02:55:36;;;;;;;;;;;16.30;99.90;;;;;;6220099;23;20225;-75
2022/08/29 02:58:02;;;;;;;;;;;16.30;99.90;;;;;;6219825;23;19947;-74
2022/08/29 03:00:27;;;;;;;;;;;16.30;99.90;;;;;;6194784;23;19970;-74
2022/08/29 03:02:54;;;;;;;;;;;16.30;99.90;;;;;;6219257;23;19938;-74
2022/08/29 03:05:23;;;;;;;;;;;16.30;99.90;;;;;;6219728;23;19983;-74
2022/08/29 03:07:51;;;;;;;;;;;16.30;99.90;;;;;;6195160;23;19922;-74
2022/08/29 03:10:18;;;;;;;;;;;16.30;99.90;;;;;;6220252;23;19916;-74
2022/08/29 03:12:48;;;;;;;;;;;16.30;99.90;;;;;;6220049;23;19923;-76
2022/08/29 03:15:14;;;;;;;;;;;16.30;99.90;;;;;;6219733;23;19920;-73
2022/08/29 03:17:39;;;;;;;;;;;16.30;99.90;;;;;;6220214;23;20285;-76
2022/08/29 03:20:06;;;;;;;;;;;16.30;99.90;;;;;;6195016;23;19919;-75
2022/08/29 03:22:32;;;;;;;;;;;16.30;99.90;;;;;;6220041;23;19962;-74
2022/08/29 03:25:00;;;;;;;;;;;16.30;99.90;;;;;;6194256;23;19920;-74
2022/08/29 03:27:26;;;;;;;;;;;16.20;99.90;;;;;;6245597;23;20425;-75
2022/08/29 03:29:52;;;;;;;;;;;16.30;99.90;;;;;;6218833;23;19911;-75
2022/08/29 03:32:17;;;;;;;;;;;16.30;99.90;;;;;;6193371;23;19915;-77
2022/08/29 03:34:43;;;;;;;;;;;16.30;99.90;;;;;;6217747;23;19957;-76
2022/08/29 03:37:09;;;;;;;;;;;16.20;99.90;;;;;;6194129;23;19912;-75
2022/08/29 03:39:35;;;;;;;;;;;16.30;99.90;;;;;;6219966;23;19916;-76
2022/08/29 03:42:00;;;;;;;;;;;16.30;99.90;;;;;;6194377;23;20268;-74
2022/08/29 03:44:26;;;;;;;;;;;16.30;99.90;;;;;;6218765;23;19920;-74
2022/08/29 03:46:52;;;;;;;;;;;16.30;99.90;;;;;;6219786;23;20230;-74
2022/08/29 03:49:18;;;;;;;;;;;16.30;99.90;;;;;;6195053;23;19915;-75
2022/08/29 03:51:43;;;;;;;;;;;16.20;99.90;;;;;;6222076;23;20301;-75
2022/08/29 03:54:09;;;;;;;;;;;16.20;99.90;;;;;;6221681;23;19933;-75
2022/08/29 03:56:35;;;;;;;;;;;16.20;99.90;;;;;;6222085;23;19923;-74
2022/08/29 03:59:00;;;;;;;;;;;16.20;99.90;;;;;;6222252;23;19915;-75
2022/08/29 04:01:27;;;;;;;;;;;16.20;99.90;;;;;;6222068;23;20001;-75
2022/08/29 04:03:56;;;;;;;;;;;16.20;99.90;;;;;;6222038;23;19987;-74
2022/08/29 04:06:23;;;;;;;;;;;16.20;99.90;;;;;;6196746;23;19923;-74
2022/08/29 04:08:50;;;;;;;;;;;16.20;99.90;;;;;;6196882;23;19912;-73
2022/08/29 04:11:17;;;;;;;;;;;16.20;99.90;;;;;;6248511;23;20290;-73
2022/08/29 04:13:42;;;;;;;;;;;16.10;99.90;;;;;;6221543;23;19946;-74
2022/08/29 04:16:13;;;;;;;;;;;16.20;99.90;;;;;;6196217;23;19918;-74
2022/08/29 04:18:39;;;;;;;;;;;16.20;99.90;;;;;;6196472;23;20254;-75
2022/08/29 04:21:05;;;;;;;;;;;16.20;99.90;;;;;;6196284;23;19926;-73
2022/08/29 04:23:39;;;;;;;;;;;16.20;99.90;;;;;;6221403;23;19924;-77
2022/08/29 04:29:37;;;;;;;;;;;16.20;99.90;;;;;;6154890;23;19910;-72
2022/08/29 04:32:03;;;;;;;;;;;16.20;99.90;;;;;;6195989;23;20222;-70
2022/08/29 04:38:01;;;;;;;;;;;16.30;99.90;;;;;;6221756;23;19911;-77
2022/08/29 04:40:26;;;;;;;;;;;16.20;99.90;;;;;;6195038;23;20327;-77
2022/08/29 04:42:52;;;;;;;;;;;16.20;99.90;;;;;;6220154;23;19994;-76
2022/08/29 04:45:19;;;;;;;;;;;16.20;99.90;;;;;;6195562;23;19919;-77
2022/08/29 04:47:45;;;;;;;;;;;16.20;99.90;;;;;;6221097;23;19911;-76
2022/08/29 04:50:12;;;;;;;;;;;16.20;99.90;;;;;;6195389;23;19915;-76
2022/08/29 04:52:38;;;;;;;;;;;16.20;99.90;;;;;;6195828;23;19912;-75
2022/08/29 04:55:04;;;;;;;;;;;16.20;99.90;;;;;;6195910;23;19912;-77
2022/08/29 04:57:30;;;;;;;;;;;16.20;99.90;;;;;;6196798;23;20226;-77
2022/08/29 04:59:57;;;;;;;;;;;16.10;99.90;;;;;;6196119;23;19912;-78
2022/08/29 05:02:23;;;;;;;;;;;16.10;99.90;;;;;;6195907;23;19920;-76
2022/08/29 05:04:51;;;;;;;;;;;16.10;99.90;;;;;;6197243;23;19938;-78
2022/08/29 05:07:21;;;;;;;;;;;16.20;99.90;;;;;;6200134;23;19958;-75
2022/08/29 05:09:48;;;;;;;;;;;16.20;99.90;;;;;;6202669;23;19912;-76
2022/08/29 05:12:14;;;;;;;;;;;16.20;99.90;;;;;;6201687;23;20287;-76
2022/08/29 05:14:40;;;;;;;;;;;16.10;99.90;;;;;;6196602;23;19919;-77
2022/08/29 05:17:05;;;;;;;;;;;16.10;99.90;;;;;;6221180;23;19911;-80
2022/08/29 05:19:31;;;;;;;;;;;16.20;99.90;;;;;;6205536;22;19954;-76
2022/08/29 05:21:57;;;;;;;;;;;16.20;99.90;;;;;;6248546;22;19927;-77
2022/08/29 05:24:23;;;;;;;;;;;16.20;99.90;;;;;;6223399;22;19911;-79
2022/08/29 05:26:50;;;;;;;;;;;16.20;99.90;;;;;;6248761;22;19904;-78
2022/08/29 05:29:15;;;;;;;;;;;16.20;99.90;;;;;;6243235;23;20240;-79
2022/08/29 05:31:41;;;;;;;;;;;16.20;99.90;;;;;;6220548;23;19927;-76
2022/08/29 05:34:08;;;;;;;;;;;16.30;99.90;;;;;;6220609;23;19918;-78
2022/08/29 05:36:33;;;;;;;;;;;16.30;99.90;;;;;;6195753;23;19912;-76
2022/08/29 05:38:59;;;;;;;;;;;16.30;99.90;;;;;;6196122;23;20327;-80
2022/08/29 05:41:25;;;;;;;;;;;16.30;99.90;;;;;;6220909;23;19919;-76
2022/08/29 05:43:53;;;;;;;;;;;16.30;99.90;;;;;;6220951;23;19915;-78
2022/08/29 05:46:18;;;;;;;;;;;16.40;99.90;;;;;;6195887;23;19912;-79
2022/08/29 05:48:44;;;;;;;;;;;16.50;99.90;;;;;;6195391;23;19961;-80
2022/08/29 05:51:15;;;;;;;;;;;16.40;99.90;;;;;;6220853;23;19947;-80
2022/08/29 05:53:40;;;;;;;;;;;16.40;99.90;;;;;;6196084;23;20369;-77
2022/08/29 05:56:06;;;;;;;;;;;16.50;99.90;;;;;;6196465;23;19998;-77
2022/08/29 05:58:31;;;;;;;;;;;16.50;99.90;;;;;;6195936;23;20253;-77
2022/08/29 06:00:57;;;;;;;;;;;16.50;99.90;;;;;;6195991;23;19911;-78
2022/08/29 06:03:22;;;;;;;;;;;16.50;99.90;;;;;;6220887;23;19946;-78
2022/08/29 06:05:49;;;;;;;;;;;16.50;99.90;;;;;;6195259;23;19954;-81
2022/08/29 06:08:15;;;;;;;;;;;16.50;99.90;;;;;;6220399;23;19911;-78
2022/08/29 06:10:42;;;;;;;;;;;16.60;99.90;;;;;;6220756;23;20340;-80
2022/08/29 06:13:07;;;;;;;;;;;16.60;99.90;;;;;;6195993;23;19918;-77
2022/08/29 06:15:33;;;;;;;;;;;16.60;99.90;;;;;;6220714;23;19912;-80
2022/08/29 06:17:59;;;;;;;;;;;16.70;99.90;;;;;;6220966;23;19911;-78
2022/08/29 06:20:24;;;;;;;;;;;16.70;99.90;;;;;;6220251;23;19911;-79
2022/08/29 06:22:50;;;;;;;;;;;16.80;99.90;;;;;;6195928;23;19916;-78
2022/08/29 06:25:16;;;;;;;;;;;16.80;99.90;;;;;;6195543;23;20334;-82
2022/08/29 06:27:41;;;;;;;;;;;16.90;99.90;;;;;;6220994;23;19915;-78
2022/08/29 06:30:07;;;;;;;;;;;16.90;99.90;;;;;;6195579;23;19912;-80
2022/08/29 06:32:33;;;;;;;;;;;17.00;99.90;;;;;;6194997;23;19951;-79
2022/08/29 06:35:01;;;;;;;;;;;17.00;99.90;;;;;;6195462;23;19919;-80
2022/08/29 06:37:26;;;;;;;;;;;17.10;99.90;;;;;;6201798;23;20327;-76
2022/08/29 06:39:52;;;;;;;;;;;17.20;99.90;;;;;;6202352;23;19994;-77
2022/08/29 06:42:22;;;;;;;;;;;17.30;99.90;;;;;;6195697;23;19920;-79
2022/08/29 06:44:48;;;;;;;;;;;17.40;99.90;;;;;;6195039;23;20264;-79
2022/08/29 06:47:16;;;;;;;;;;;17.50;99.90;;;;;;6195480;23;19947;-77
2022/08/29 06:49:42;;;;;;;;;;;17.60;99.90;;;;;;6195202;23;20397;-77
2022/08/29 06:52:07;;;;;;;;;;;17.70;99.90;;;;;;6194963;23;19943;-77
2022/08/29 06:54:33;;;;;;;;;;;17.80;99.90;;;;;;6195656;23;19912;-80
2022/08/29 06:56:59;;;;;;;;;;;17.90;99.90;;;;;;6195273;23;19911;-78
2022/08/29 06:59:25;;;;;;;;;;;17.90;99.90;;;;;;6195285;23;19978;-78
2022/08/29 07:01:51;;;;;;;;;;;17.90;99.90;;;;;;6194837;23;19998;-78
2022/08/29 07:04:16;;;;;;;;;;;18.00;99.90;;;;;;6220473;23;19915;-77
2022/08/29 07:06:42;;;;;;;;;;;18.00;99.90;;;;;;6195188;23;20277;-77
2022/08/29 07:09:08;;;;;;;;;;;18.00;99.90;;;;;;6195258;23;19911;-80
2022/08/29 07:11:36;;;;;;;;;;;18.00;99.90;;;;;;6220346;23;19912;-77
2022/08/29 07:14:03;;;;;;;;;;;18.10;99.90;;;;;;6194944;23;19919;-78
2022/08/29 07:16:29;;;;;;;;;;;18.10;99.90;;;;;;6220317;23;19912;-77
2022/08/29 07:18:55;;;;;;;;;;;18.20;99.90;;;;;;6194806;23;19912;-77
2022/08/29 07:21:22;;;;;;;;;;;18.30;99.90;;;;;;6194862;23;19916;-79
2022/08/29 07:23:48;;;;;;;;;;;18.30;99.90;;;;;;6194302;23;19911;-78
2022/08/29 07:26:15;;;;;;;;;;;18.30;99.90;;;;;;6194811;23;19950;-81
2022/08/29 07:28:41;;;;;;;;;;;18.20;99.90;;;;;;6194888;23;19939;-79
2022/08/29 07:31:07;;;;;;;;;;;18.30;99.90;;;;;;6195239;23;19938;-77
2022/08/29 07:33:33;;;;;;;;;;;18.20;99.90;;;;;;6220175;23;19919;-80
2022/08/29 07:35:59;;;;;;;;;;;18.30;99.90;;;;;;6220192;23;19958;-79
2022/08/29 07:38:27;;;;;;;;;;;18.30;99.90;;;;;;6194746;23;20387;-78
2022/08/29 07:41:14;;;;;;;;;;;18.40;99.90;;;;;;6195344;23;19950;-77
2022/08/29 07:50:29;;;;;;;;;;;18.80;99.90;;;;;;6246699;22;19912;-74
2022/08/29 07:52:55;;;;;;;;;;;18.70;99.90;;;;;;6195177;23;20237;-76
2022/08/29 07:55:20;;;;;;;;;;;18.90;99.90;;;;;;6170110;23;19911;-75
2022/08/29 07:57:47;;;;;;;;;;;19.10;99.90;;;;;;6194626;23;19919;-75
2022/08/29 08:00:13;;;;;;;;;;;19.30;99.90;;;;;;6194566;23;19915;-77
2022/08/29 08:02:38;;;;;;;;;;;19.40;99.90;;;;;;6194562;23;19966;-78
2022/08/29 08:05:08;;;;;;;;;;;19.30;99.90;;;;;;6194966;23;19911;-78
2022/08/29 08:07:34;;;;;;;;;;;19.10;99.90;;;;;;6196048;23;19915;-76
2022/08/29 08:10:00;;;;;;;;;;;19.20;99.90;;;;;;6199895;23;19918;-75
2022/08/29 08:12:26;;;;;;;;;;;19.20;99.90;;;;;;6195365;23;19911;-77
2022/08/29 08:14:52;;;;;;;;;;;19.10;99.90;;;;;;6218353;23;19990;-77
2022/08/29 08:17:26;;;;;;;;;;;19.10;99.90;;;;;;6218064;23;20362;-79
2022/08/29 08:19:52;;;;;;;;;;;19.20;99.90;;;;;;6200911;23;19916;-80
2022/08/29 08:22:20;;;;;;;;;;;19.20;99.90;;;;;;6193930;23;19927;-80
2022/08/29 08:24:49;;;;;;;;;;;19.40;99.90;;;;;;6193336;23;20321;-79
2022/08/29 08:27:14;;;;;;;;;;;19.50;99.90;;;;;;6192883;23;20346;-80
2022/08/29 08:29:42;;;;;;;;;;;19.50;99.90;;;;;;6192716;23;19912;-80
2022/08/29 08:32:08;;;;;;;;;;;19.60;99.90;;;;;;6217257;23;20302;-80
2022/08/29 08:34:34;;;;;;;;;;;19.60;99.90;;;;;;6218319;23;19912;-79
2022/08/29 08:37:00;;;;;;;;;;;19.60;99.90;;;;;;6194206;23;19911;-79
2022/08/29 08:39:26;;;;;;;;;;;19.80;99.90;;;;;;6193775;23;19916;-79
2022/08/29 08:42:13;;;;;;;;;;;19.90;99.90;;;;;;6194163;23;20230;-79
2022/08/29 08:44:54;;;;;;;;;;;20.10;99.90;;;;;;6194036;23;19919;-82
2022/08/29 08:47:25;;;;;;;;;;;20.40;99.90;;;;;;6195386;23;20310;-81
2022/08/29 08:49:57;;;;;;;;;;;20.50;99.90;;;;;;6194979;23;19923;-80
2022/08/29 08:52:33;;;;;;;;;;;20.60;99.90;;;;;;6195707;23;19915;-82
2022/08/29 08:55:01;;;;;;;;;;;20.70;99.90;;;;;;6195227;23;19912;-82
2022/08/29 08:57:40;;;;;;;;;;;20.90;99.90;;;;;;6196261;23;19933;-81
2022/08/29 09:00:14;;;;;;;;;;;21.00;99.90;;;;;;6248263;23;20197;-77
2022/08/29 09:02:49;;;;;;;;;;;21.20;99.90;;;;;;6195840;23;19961;-75
2022/08/29 09:05:30;;;;;;;;;;;21.20;99.90;;;;;;6220938;23;19982;-77
2022/08/29 09:07:55;;;;;;;;;;;21.00;99.90;;;;;;6196275;23;19990;-77
2022/08/29 09:10:27;;;;;;;;;;;20.80;99.90;;;;;;6195552;23;19947;-76
2022/08/29 09:13:11;;;;;;;;;;;20.70;99.90;;;;;;6195397;23;19916;-75
2022/08/29 09:15:42;;;;;;;;;;;20.60;99.90;;;;;;6220318;23;19911;-75
2022/08/29 09:18:10;;;;;;;;;;;20.60;99.90;;;;;;6195800;23;19911;-77
2022/08/29 09:20:37;;;;;;;;;;;20.70;99.90;;;;;;6195355;23;20330;-76
2022/08/29 09:23:09;;;;;;;;;;;20.80;99.90;;;;;;6195511;23;20006;-76
2022/08/29 09:25:35;;;;;;;;;;;21.00;99.90;;;;;;6196108;23;19911;-75
2022/08/29 09:28:03;;;;;;;;;;;21.20;99.90;;;;;;6221230;23;19964;-75
2022/08/29 09:30:30;;;;;;;;;;;21.00;99.90;;;;;;6196000;23;20269;-76
2022/08/29 09:33:03;;;;;;;;;;;21.00;99.90;;;;;;6196189;23;19945;-77
2022/08/29 09:35:39;;;;;;;;;;;21.00;99.90;;;;;;6196142;23;19918;-74
2022/08/29 09:38:26;;;;;;;;;;;20.90;99.90;;;;;;6195677;23;20277;-79
2022/08/29 09:41:10;;;;;;;;;;;21.10;99.90;;;;;;6154634;23;20264;-76
2022/08/29 09:43:38;;;;;;;;;;;21.10;99.90;;;;;;6130264;23;19962;-76
2022/08/29 09:46:14;;;;;;;;;;;21.00;99.90;;;;;;6105586;23;19951;-78
2022/08/29 09:48:45;;;;;;;;;;;21.00;99.90;;;;;;6105779;23;19922;-77
2022/08/29 09:51:23;;;;;;;;;;;20.70;99.90;;;;;;6129854;23;20294;-77
2022/08/29 09:53:49;;;;;;;;;;;20.60;99.90;;;;;;6154366;23;19951;-75
2022/08/29 10:00:11;;;;;;;;;;;20.50;99.90;;;;;;6035830;23;19918;-82
2022/08/29 10:06:15;;;;;;;;;;;20.50;99.90;;;;;;6037023;23;19955;-83
2022/08/29 10:12:07;;;;;;;;;;;20.50;99.90;;;;;;6153206;23;19912;-84
2022/08/29 10:32:41;;;;;;;;;;;20.40;99.90;;;;;;6216020;22;19929;-84
2022/08/29 10:35:31;;;;;;;;;;;20.50;99.90;;;;;;6193517;23;20357;-84
2022/08/29 10:38:03;;;;;;;;;;;20.30;99.90;;;;;;6193951;23;19946;-79
2022/08/29 10:40:47;;;;;;;;;;;20.40;99.90;;;;;;6219023;23;19954;-81
2022/08/29 10:43:37;;;;;;;;;;;20.60;99.90;;;;;;6218728;23;19973;-85
2022/08/29 10:46:21;;;;;;;;;;;20.60;99.90;;;;;;6210851;23;19970;-80
2022/08/29 11:00:07;;;;;;;;;;;20.50;99.90;;;;;;6240847;22;20315;-75
2022/08/29 11:06:00;;;;;;;;;;;20.30;99.90;;;;;;6244817;23;20284;-75
2022/08/29 11:09:23;;;;;;;;;;;20.20;99.90;;;;;;6206932;23;19919;-82
2022/08/29 11:12:01;;;;;;;;;;;20.00;99.90;;;;;;6216689;23;19994;-81
2022/08/29 11:14:34;;;;;;;;;;;20.10;99.90;;;;;;6192979;23;20281;-75
2022/08/29 11:17:51;;;;;;;;;;;;;;;;;;;;;
2022/08/29 11:27:33;;;;;;;;;;;19.90;99.90;;;;;;6153506;23;19947;-76
2022/08/29 11:33:24;;;;;;;;;;;19.80;99.90;;;;;;6218176;23;19919;-82
2022/08/29 11:36:04;;;;;;;;;;;19.90;99.90;;;;;;6157257;23;20346;-78
2022/08/29 11:38:44;;;;;;;;;;;19.90;99.90;;;;;;6158775;23;19916;-80
2022/08/29 11:41:37;;;;;;;;;;;20.00;99.90;;;;;;6157885;23;19931;-78
2022/08/29 11:44:21;;;;;;;;;;;20.10;99.90;;;;;;6156355;23;19927;-79
2022/08/29 11:47:01;;;;;;;;;;;20.10;99.90;;;;;;6159790;23;19916;-79
2022/08/29 11:49:59;;;;;;;;;;;20.20;99.90;;;;;;6160674;23;19971;-78
2022/08/29 11:52:49;;;;;;;;;;;20.40;99.90;;;;;;6158456;23;20351;-77
2022/08/29 11:56:08;;;;;;;;;;;20.60;99.90;;;;;;6066272;23;19941;-77
2022/08/29 11:58:45;;;;;;;;;;;20.60;99.90;;;;;;6097935;23;19917;-78
2022/08/29 12:01:34;;;;;;;;;;;20.30;99.90;;;;;;6158152;23;19928;-79
2022/08/29 12:04:11;;;;;;;;;;;20.30;99.90;;;;;;6158745;23;19916;-79
2022/08/29 12:07:02;;;;;;;;;;;20.20;99.90;;;;;;6160607;23;19924;-79
2022/08/29 12:09:49;;;;;;;;;;;19.90;99.90;;;;;;6133857;23;19916;-80
2022/08/29 12:12:47;;;;;;;;;;;19.80;99.90;;;;;;6137208;23;19920;-80
2022/08/29 12:15:32;;;;;;;;;;;19.70;99.90;;;;;;6162348;23;19919;-79
2022/08/29 12:18:00;;;;;;;;;;;19.70;99.90;;;;;;6196310;23;20011;-79
2022/08/29 12:20:29;;;;;;;;;;;19.70;99.90;;;;;;6196862;23;20331;-78
2022/08/29 12:23:08;;;;;;;;;;;19.50;99.90;;;;;;6197552;23;19942;-78
2022/08/29 12:25:45;;;;;;;;;;;19.60;99.90;;;;;;6199307;23;19991;-78
2022/08/29 12:28:24;;;;;;;;;;;19.60;99.90;;;;;;6208326;23;19916;-78
2022/08/29 12:31:02;;;;;;;;;;;19.50;99.90;;;;;;6202941;23;19965;-79
2022/08/29 12:34:07;;;;;;;;;;;19.50;99.90;;;;;;6160310;23;20289;-80
2022/08/29 12:36:59;;;;;;;;;;;19.60;99.90;;;;;;6195582;23;19990;-80
2022/08/29 12:40:05;;;;;;;;;;;19.60;99.90;;;;;;6218757;23;19915;-79
2022/08/29 12:43:33;;;;;;;;;;;19.60;99.90;;;;;;6137061;23;19920;-80
2022/08/29 12:46:22;;;;;;;;;;;19.70;99.90;;;;;;6196729;23;19916;-79
2022/08/29 12:49:28;;;;;;;;;;;19.80;99.90;;;;;;6199167;23;19916;-81
2022/08/29 12:52:18;;;;;;;;;;;19.90;99.90;;;;;;6192753;23;20373;-80
2022/08/29 12:55:35;;;;;;;;;;;20.00;99.90;;;;;;6136939;23;19917;-78
2022/08/29 12:58:11;;;;;;;;;;;20.20;99.90;;;;;;6101086;23;19917;-77
2022/08/29 13:04:46;;;;;;;;;;;20.50;99.90;;;;;;6081390;23;19929;-80
2022/08/29 13:08:06;;;;;;;;;;;;;;;;;;;;;
2022/08/29 13:10:56;;;;;;;;;;;20.30;99.90;;;;;;6108561;23;19917;-78
2022/08/29 13:13:45;;;;;;;;;;;20.40;99.90;;;;;;6078208;23;19968;-80
2022/08/29 13:16:51;;;;;;;;;;;20.60;99.90;;;;;;6086676;23;19987;-80
2022/08/29 13:22:46;;;;;;;;;;;20.70;99.90;;;;;;6129877;23;19960;-79
2022/08/29 13:25:15;;;;;;;;;;;20.80;99.90;;;;;;6067054;23;20272;-81
2022/08/29 13:28:13;;;;;;;;;;;;;;;;;;;;;
2022/08/29 13:31:26;;;;;;;;;;;21.20;99.90;;;;;;6155464;23;19916;-80
2022/08/29 13:35:07;;;;;;;;;;;21.30;99.90;;;;;;6103291;23;19960;-80
2022/08/29 13:38:04;;;;;;;;;;;21.20;99.90;;;;;;6127747;23;19916;-81
2022/08/29 13:40:45;;;;;;;;;;;21.40;99.90;;;;;;6070305;23;19916;-78
2022/08/29 13:43:41;;;;;;;;;;;21.60;99.90;;;;;;6152622;23;19921;-80
2022/08/29 13:46:46;;;;;;;;;;;21.70;99.90;;;;;;6106298;23;19986;-80
2022/08/29 13:49:18;;;;;;;;;;;21.90;99.90;;;;;;6128355;23;19924;-79
2022/08/29 13:52:09;;;;;;;;;;;21.80;99.90;;;;;;6130154;23;19928;-80
2022/08/29 13:54:39;;;;;;;;;;;21.50;99.90;;;;;;6108386;23;19963;-79
2022/08/29 13:57:05;;;;;;;;;;;21.60;99.90;;;;;;6191688;23;19967;-80
2022/08/29 13:59:48;;;;;;;;;;;21.30;99.90;;;;;;6221253;23;20227;-78
2022/08/29 14:02:29;;;;;;;;;;;21.40;99.90;;;;;;6166208;23;20006;-79
2022/08/29 14:08:33;;;;;;;;;;;21.40;99.90;;;;;;6215029;23;19919;-80
2022/08/29 14:11:13;;;;;;;;;;;21.40;99.90;;;;;;6202373;23;19927;-81
2022/08/29 14:16:36;;;;;;;;;;;21.30;99.90;;;;;;6229628;23;19945;-80
2022/08/29 14:19:07;;;;;;;;;;;21.10;99.90;;;;;;6218737;23;19920;-80
2022/08/29 14:21:35;;;;;;;;;;;21.00;99.90;;;;;;6211303;23;19920;-79
2022/08/29 14:24:13;;;;;;;;;;;20.90;99.90;;;;;;6188592;23;19965;-81
2022/08/29 14:26:43;;;;;;;;;;;20.90;99.90;;;;;;6165391;23;19923;-81
2022/08/29 14:29:12;;;;;;;;;;;21.00;99.90;;;;;;6191842;23;19916;-78
2022/08/29 14:31:50;;;;;;;;;;;21.00;99.90;;;;;;6214819;23;20290;-81
2022/08/29 14:34:31;;;;;;;;;;;20.90;99.90;;;;;;6158332;23;19920;-80
2022/08/29 14:36:57;;;;;;;;;;;20.90;99.90;;;;;;6189628;23;20239;-81
2022/08/29 14:39:47;;;;;;;;;;;20.90;99.90;;;;;;6189254;23;19970;-80
2022/08/29 14:42:25;;;;;;;;;;;20.90;99.90;;;;;;6190866;23;19920;-83
2022/08/29 14:45:09;;;;;;;;;;;20.70;99.90;;;;;;6193103;23;19923;-81
2022/08/29 14:47:38;;;;;;;;;;;20.80;99.90;;;;;;6190180;23;19916;-80
2022/08/29 14:50:11;;;;;;;;;;;20.70;99.90;;;;;;6190964;23;19923;-79
2022/08/29 14:52:47;;;;;;;;;;;20.70;99.90;;;;;;6191760;23;20007;-80
2022/08/29 14:55:16;;;;;;;;;;;20.80;99.90;;;;;;6190323;23;19977;-80
2022/08/29 14:58:04;;;;;;;;;;;20.90;99.90;;;;;;6190271;23;19967;-80
2022/08/29 15:00:47;;;;;;;;;;;20.80;99.90;;;;;;6205775;23;19926;-79
2022/08/29 15:03:24;;;;;;;;;;;20.90;99.90;;;;;;6221757;23;19920;-81
2022/08/29 15:06:00;;;;;;;;;;;20.90;99.90;;;;;;6228434;23;19923;-79
2022/08/29 15:08:51;;;;;;;;;;;20.80;99.90;;;;;;6219207;23;19962;-80
2022/08/29 15:11:35;;;;;;;;;;;20.80;99.90;;;;;;6218648;23;19973;-80
2022/08/29 15:14:13;;;;;;;;;;;20.80;99.90;;;;;;6219553;23;19923;-78
2022/08/29 15:16:41;;;;;;;;;;;20.70;99.90;;;;;;6216850;23;19916;-81
2022/08/29 15:19:13;;;;;;;;;;;20.90;99.90;;;;;;6219282;23;20275;-80
2022/08/29 15:21:47;;;;;;;;;;;21.20;99.90;;;;;;6219888;23;19971;-80
2022/08/29 15:27:59;;;;;;;;;;;21.20;99.90;;;;;;6218906;23;19923;-76
2022/08/29 15:30:34;;;;;;;;;;;21.20;99.90;;;;;;6218145;23;19915;-76
2022/08/29 15:33:12;;;;;;;;;;;21.20;99.90;;;;;;6194021;23;19973;-79
2022/08/29 15:42:46;;;;;;;;;;;21.30;99.90;;;;;;6125514;23;20044;-84
2022/08/29 15:45:41;;;;;;;;;;;21.20;99.90;;;;;;6098265;23;19967;-81
2022/08/29 15:48:23;;;;;;;;;;;21.40;99.90;;;;;;6100537;23;19917;-82
2022/08/29 15:50:55;;;;;;;;;;;21.60;99.90;;;;;;6209803;23;19915;-85
2022/08/29 15:53:23;;;;;;;;;;;21.60;99.90;;;;;;6220280;23;19956;-81
2022/08/29 15:55:49;;;;;;;;;;;21.40;99.90;;;;;;6219889;23;19916;-75
2022/08/29 15:58:35;;;;;;;;;;;21.30;99.90;;;;;;6245393;23;19916;-77
2022/08/29 16:01:34;;;;;;;;;;;21.30;99.90;;;;;;6244193;23;19923;-82
2022/08/29 16:04:00;;;;;;;;;;;21.30;99.90;;;;;;6229657;23;19916;-76
2022/08/29 16:13:19;;;;;;;;;;;20.90;99.90;;;;;;6245460;23;19943;-78
2022/08/29 16:44:40;;;;;;;;;;;20.00;99.90;;;;;;6234142;22;19923;-77
2022/08/29 16:53:50;;;;;;;;;;;19.90;99.90;;;;;;6217749;23;19954;-86
2022/08/29 16:56:51;;;;;;;;;;;19.80;99.90;;;;;;6190129;23;19991;-83
2022/08/29 16:59:25;;;;;;;;;;;19.80;99.90;;;;;;6100801;23;19997;-80
2022/08/29 17:18:34;;;;;;;;;;;19.60;99.90;;;;;;6214139;23;19941;-77
2022/08/29 17:21:00;;;;;;;;;;;19.60;99.90;;;;;;6187651;23;20004;-76
2022/08/29 17:23:55;;;;;;;;;;;19.60;99.90;;;;;;6187336;23;20297;-80